Time;durP1;ratioP1;P1;durP2;ratioP2;P2;SDS_P1;SDS_P2;PMS_P1;PMS_P2;Temp;Humidity;BMP_temperature;BMP_pressure;BME280_temperature;BME280_humidity;BME280_pressure;Samples;Min_cycle;Max_cycle;Signal;HPM_P1;HPM_P2
2022/08/29 00:02:58;;;;;;;4.38;2.42;;;;;;;15.54;81.48;100248.94;10460750;28;20049;-70
2022/08/29 00:08:03;;;;;;;4.10;1.90;;;;;;;15.46;81.33;100252.88;10443841;28;20048;-77
2022/08/29 00:13:07;;;;;;;5.18;2.15;;;;;;;15.46;81.20;100250.22;10460350;28;20055;-76
2022/08/29 00:18:08;;;;;;;7.35;2.13;;;;;;;15.48;80.83;100258.94;10442472;28;20053;-77
2022/08/29 00:23:11;;;;;;;4.97;2.03;;;;;;;15.85;77.21;100263.34;10460011;28;20502;-76
2022/08/29 00:28:13;;;;;;;5.60;2.35;;;;;;;15.66;79.17;100263.38;10441346;28;20418;-76
2022/08/29 00:33:15;;;;;;;6.35;2.08;;;;;;;15.50;79.56;100263.25;10441559;28;20147;-76
2022/08/29 00:38:17;;;;;;;3.83;2.30;;;;;;;15.72;78.96;100272.84;10459000;28;20060;-77
2022/08/29 00:43:24;;;;;;;11.40;2.72;;;;;;;15.61;78.66;100273.31;10441503;28;20079;-77
2022/08/29 00:48:27;;;;;;;;;;;;;;;15.60;78.49;100277.75;10441506;28;20041;-75
2022/08/29 00:53:42;;;;;;;6.47;2.40;;;;;;;15.72;77.28;100272.84;10441011;28;20369;-77
2022/08/29 00:58:48;;;;;;;7.00;2.42;;;;;;;15.68;77.56;100273.94;10440378;28;20045;-76
2022/08/29 01:03:50;;;;;;;;;;;;;;;15.67;77.87;100281.03;10458619;28;20052;-75
2022/08/29 01:08:52;;;;;;;5.68;2.30;;;;;;;15.73;76.93;100278.06;10458291;28;19920;-76
2022/08/29 01:13:58;;;;;;;4.33;2.10;;;;;;;15.68;77.44;100284.53;10457839;28;20071;-75
2022/08/29 01:19:10;;;;;;;5.93;2.35;;;;;;;15.72;77.30;100281.66;10457246;28;20392;-75
2022/08/29 01:24:15;;;;;;;6.75;2.70;;;;;;;15.77;76.75;100284.06;10458964;28;20411;-75
2022/08/29 01:29:17;;;;;;;4.40;2.17;;;;;;;15.51;78.28;100283.50;10440596;28;20500;-75
2022/08/29 01:34:19;;;;;;;4.93;2.42;;;;;;;15.36;79.29;100284.22;10440127;28;20049;-76
2022/08/29 01:39:25;;;;;;;5.50;2.60;;;;;;;15.31;79.26;100283.59;10439811;28;20049;-75
2022/08/29 01:44:27;;;;;;;4.13;2.38;;;;;;;15.27;79.39;100288.19;10458192;28;20124;-75
2022/08/29 01:49:35;;;;;;;6.65;2.50;;;;;;;15.33;77.89;100285.25;10441015;28;20041;-75
2022/08/29 01:54:43;;;;;;;7.47;2.47;;;;;;;15.41;76.86;100289.34;10457608;28;20041;-75
2022/08/29 01:59:45;;;;;;;4.47;2.25;;;;;;;15.28;77.78;100297.00;10457297;28;20045;-77
2022/08/29 02:04:48;;;;;;;4.65;2.35;;;;;;;15.09;79.36;100292.53;10456931;28;20553;-75
2022/08/29 02:09:50;;;;;;;5.85;2.45;;;;;;;15.08;79.37;100296.13;10457783;28;20074;-77
2022/08/29 02:14:52;;;;;;;5.03;2.63;;;;;;;15.04;79.42;100297.19;10459070;28;20041;-77
2022/08/29 02:19:54;;;;;;;4.10;2.08;;;;;;;14.85;81.40;100291.88;10440208;28;20072;-77
2022/08/29 02:24:55;;;;;;;3.45;2.15;;;;;;;14.89;80.91;100290.81;10457389;28;20106;-77
2022/08/29 02:29:58;;;;;;;5.95;2.70;;;;;;;14.92;80.91;100297.78;10457707;28;20578;-77
2022/08/29 02:35:00;;;;;;;6.53;2.65;;;;;;;14.66;82.66;100295.44;10465104;28;20494;-75
2022/08/29 02:40:05;;;;;;;4.75;2.58;;;;;;;14.71;82.21;100296.09;10446608;28;20049;-75
2022/08/29 02:45:07;;;;;;;3.85;2.15;;;;;;;14.50;84.02;100300.53;10447115;28;20072;-75
2022/08/29 02:50:12;;;;;;;6.95;2.95;;;;;;;14.50;82.76;100300.53;10448433;28;20123;-75
2022/08/29 02:55:17;;;;;;;3.83;2.67;;;;;;;14.61;81.24;100304.44;10430252;28;20057;-75
2022/08/29 03:00:24;;;;;;;9.85;3.13;;;;;;;14.75;79.50;100302.97;10446420;28;20135;-75
2022/08/29 03:05:29;;;;;;;4.40;2.50;;;;;;;14.65;80.74;100313.06;10464783;28;20129;-75
2022/08/29 03:10:32;;;;;;;6.40;3.05;;;;;;;14.33;84.19;100309.16;10464086;28;20490;-76
2022/08/29 03:15:34;;;;;;;4.38;2.40;;;;;;;14.23;83.97;100302.56;10463618;28;20044;-76
2022/08/29 03:20:36;;;;;;;4.30;2.60;;;;;;;14.21;83.26;100299.97;10464343;28;20045;-75
2022/08/29 03:25:38;;;;;;;3.83;2.55;;;;;;;14.05;85.22;100305.03;10463740;28;20045;-75
2022/08/29 03:30:39;;;;;;;6.32;2.90;;;;;;;13.85;87.16;100302.34;10463820;28;20041;-75
2022/08/29 03:35:41;;;;;;;4.80;2.55;;;;;;;13.77;88.03;100291.25;10464590;28;20099;-76
2022/08/29 03:40:43;;;;;;;3.55;2.45;;;;;;;13.69;87.83;100302.13;10463997;28;20445;-75
2022/08/29 03:45:45;;;;;;;9.85;3.28;;;;;;;13.59;88.13;100304.28;10462646;28;20094;-75
2022/08/29 03:50:46;;;;;;;6.38;3.58;;;;;;;13.57;89.39;100315.81;10463537;28;20403;-77
2022/08/29 03:55:48;;;;;;;5.65;3.40;;;;;;;13.53;88.97;100317.72;10463987;28;20109;-77
2022/08/29 04:00:50;;;;;;;5.03;2.40;;;;;;;13.78;86.39;100327.31;10465189;28;20087;-76
2022/08/29 04:05:52;;;;;;;8.25;2.92;;;;;;;14.03;83.52;100320.13;10462785;28;20430;-75
2022/08/29 04:10:56;;;;;;;3.65;2.33;;;;;;;14.07;83.11;100324.31;10462795;28;20033;-76
2022/08/29 04:15:58;;;;;;;5.55;3.10;;;;;;;13.99;83.35;100328.22;10462183;28;20483;-76
2022/08/29 04:21:01;;;;;;;5.95;2.70;;;;;;;14.02;84.59;100328.09;10461421;28;20036;-75
2022/08/29 04:26:03;;;;;;;8.05;2.83;;;;;;;13.87;84.22;100326.94;10461320;28;20099;-78
2022/08/29 04:31:25;;;;;;;4.80;2.95;;;;;;;13.58;86.17;100330.75;10461208;28;20041;-76
2022/08/29 04:36:27;;;;;;;5.07;2.78;;;;;;;13.63;85.31;100340.22;10461698;28;20560;-76
2022/08/29 04:41:29;;;;;;;11.02;3.67;;;;;;;13.51;86.30;100342.47;10443795;28;20041;-76
2022/08/29 04:46:34;;;;;;;4.18;2.75;;;;;;;13.60;87.56;100345.63;10443095;28;20056;-76
2022/08/29 04:51:35;;;;;;;10.20;4.25;;;;;;;13.53;88.57;100340.63;10461218;28;20036;-76
2022/08/29 04:56:37;;;;;;;4.70;2.67;;;;;;;13.55;88.96;100352.00;10442754;28;20049;-76
2022/08/29 05:01:47;;;;;;;5.88;3.38;;;;;;;13.61;89.19;100365.81;10460107;28;20119;-76
2022/08/29 05:06:49;;;;;;;5.05;2.80;;;;;;;13.70;88.18;100371.66;10460275;28;20072;-76
2022/08/29 05:11:51;;;;;;;3.95;3.08;;;;;;;14.02;83.44;100360.66;10460636;28;20398;-76
2022/08/29 05:16:53;;;;;;;5.82;3.15;;;;;;;14.31;80.66;100364.75;10461386;28;20052;-77
2022/08/29 05:21:56;;;;;;;9.27;2.85;;;;;;;14.70;77.36;100365.78;10460305;28;20043;-76
2022/08/29 05:26:58;;;;;;;7.13;3.17;;;;;;;14.74;77.41;100372.66;10443219;28;20406;-77
2022/08/29 05:32:01;;;;;;;7.88;2.85;;;;;;;14.85;76.43;100373.06;10459811;28;20060;-76
2022/08/29 05:37:06;;;;;;;7.03;2.72;;;;;;;14.98;75.29;100368.94;10441756;28;20056;-77
2022/08/29 05:42:10;;;;;;;4.93;3.10;;;;;;;14.92;76.46;100371.00;10441158;28;20056;-77
2022/08/29 05:47:14;;;;;;;6.80;3.40;;;;;;;15.33;72.88;100363.84;10459617;28;20390;-77
2022/08/29 05:52:18;;;;;;;6.68;3.45;;;;;;;15.29;73.64;100365.78;10458071;28;20041;-76
2022/08/29 05:57:22;;;;;;;6.97;3.53;;;;;;;15.54;71.37;100369.94;10440342;28;20049;-75
2022/08/29 06:02:24;;;;;;;7.22;3.75;;;;;;;15.89;69.06;100373.56;10442271;28;20052;-77
2022/08/29 06:07:26;;;;;;;6.32;3.63;;;;;;;16.31;68.60;100386.53;10461674;28;20461;-73
2022/08/29 06:12:27;;;;;;;5.00;3.05;;;;;;;16.67;67.34;100387.41;10446564;28;20102;-74
2022/08/29 06:17:29;;;;;;;6.32;3.42;;;;;;;17.25;64.91;100392.34;10447049;28;20145;-73
2022/08/29 06:22:31;;;;;;;6.63;3.70;;;;;;;17.67;61.69;100396.28;10466432;28;20063;-72
2022/08/29 06:27:32;;;;;;;6.15;3.25;;;;;;;17.72;61.02;100396.88;10465328;28;20049;-73
2022/08/29 06:32:34;;;;;;;7.25;3.17;;;;;;;17.73;61.62;100401.25;10446722;28;20057;-73
2022/08/29 06:37:36;;;;;;;6.43;3.78;;;;;;;17.68;63.80;100408.63;10464184;28;20414;-73
2022/08/29 06:42:37;;;;;;;9.10;3.60;;;;;;;17.81;62.50;100415.00;10463659;28;20055;-72
2022/08/29 06:47:40;;;;;;;5.35;3.20;;;;;;;18.00;60.52;100417.50;10463902;28;20063;-72
2022/08/29 06:52:41;;;;;;;7.32;3.75;;;;;;;17.80;61.99;100421.28;10445812;28;20033;-73
2022/08/29 06:57:44;;;;;;;7.80;3.20;;;;;;;17.63;62.88;100425.69;10464213;28;20110;-73
2022/08/29 07:02:47;;;;;;;7.18;3.53;;;;;;;17.63;62.40;100436.31;10462866;28;20099;-70
2022/08/29 07:07:53;;;;;;;9.30;4.25;;;;;;;17.87;61.29;100422.63;10462597;28;20044;-71
2022/08/29 07:12:55;;;;;;;6.13;2.83;;;;;;;17.69;62.40;100428.94;10462145;28;20401;-71
2022/08/29 07:17:56;;;;;;;5.35;3.50;;;;;;;17.72;63.35;100432.31;10445033;28;20052;-71
2022/08/29 07:23:00;;;;;;;5.05;3.40;;;;;;;17.94;60.87;100434.66;10462244;28;20047;-70
2022/08/29 07:28:03;;;;;;;6.25;3.63;;;;;;;17.89;60.68;100429.59;10462678;28;20045;-72
2022/08/29 07:33:05;;;;;;;6.28;4.28;;;;;;;17.88;62.47;100419.03;10461363;28;20048;-70
2022/08/29 07:38:06;;;;;;;6.82;3.85;;;;;;;17.50;63.50;100419.31;10460817;28;20076;-71
2022/08/29 07:43:09;;;;;;;8.32;3.50;;;;;;;17.65;63.73;100422.94;10460741;28;20073;-71
2022/08/29 07:48:11;;;;;;;6.68;3.47;;;;;;;17.88;62.54;100435.88;10460523;28;20048;-71
2022/08/29 07:53:13;;;;;;;6.85;3.33;;;;;;;17.92;62.12;100438.34;10460518;28;20139;-71
2022/08/29 07:58:15;;;;;;;7.43;3.35;;;;;;;17.98;61.30;100424.72;10442429;28;20087;-70
2022/08/29 08:03:17;;;;;;;6.72;3.53;;;;;;;18.22;61.31;100423.31;10460168;28;20041;-70
2022/08/29 08:08:19;;;;;;;5.35;3.40;;;;;;;18.33;59.07;100430.69;10459677;28;20037;-71
2022/08/29 08:13:22;;;;;;;6.50;3.38;;;;;;;18.26;60.65;100419.53;10442435;28;20074;-70
2022/08/29 08:18:24;;;;;;;9.95;3.00;;;;;;;18.16;60.64;100429.00;10459518;28;20115;-71
2022/08/29 08:23:26;;;;;;;4.57;3.17;;;;;;;18.32;60.75;100440.44;10443346;28;20072;-71
2022/08/29 08:28:29;;;;;;;4.70;3.42;;;;;;;18.68;58.78;100444.59;10440962;28;20120;-71
2022/08/29 08:33:32;;;;;;;16.33;3.53;;;;;;;18.76;60.32;100450.34;10423543;28;20065;-70
2022/08/29 08:38:35;;;;;;;5.75;3.08;;;;;;;18.95;59.87;100444.81;10456549;28;20060;-69
2022/08/29 08:43:49;;;;;;;5.30;3.55;;;;;;;18.93;60.00;100444.03;10458926;28;20112;-70
2022/08/29 08:48:54;;;;;;;5.13;3.20;;;;;;;19.10;59.98;100443.03;10458645;28;20051;-70
2022/08/29 08:53:58;;;;;;;6.32;3.70;;;;;;;19.29;57.46;100437.41;10459376;28;20208;-74
2022/08/29 08:59:19;;;;;;;6.30;3.42;;;;;;;19.50;55.54;100449.41;10457989;28;20502;-74
2022/08/29 09:04:39;;;;;;;8.50;3.25;;;;;;;19.39;56.58;100449.25;10441364;28;20490;-74
2022/08/29 09:09:49;;;;;;;6.88;3.63;;;;;;;19.74;55.96;100447.03;10459391;28;20040;-74
2022/08/29 09:15:02;;;;;;;6.05;3.60;;;;;;;20.16;55.78;100458.59;10440229;28;20061;-74
2022/08/29 09:20:10;;;;;;;6.05;2.80;;;;;;;20.15;55.67;100460.41;10439968;28;20143;-74
2022/08/29 09:25:12;;;;;;;7.13;2.85;;;;;;;20.34;53.58;100465.41;10440109;28;20115;-75
2022/08/29 09:30:27;;;;;;;5.38;3.20;;;;;;;20.29;52.97;100448.00;10439174;28;20495;-74
2022/08/29 09:35:51;;;;;;;4.63;2.60;;;;;;;20.51;52.39;100450.13;10439714;28;20041;-74
2022/08/29 09:40:59;;;;;;;6.38;3.15;;;;;;;20.72;52.37;100453.16;10460151;28;20487;-74
2022/08/29 09:46:27;;;;;;;7.43;3.75;;;;;;;20.73;51.28;100454.91;10449159;28;20103;-75
2022/08/29 09:51:35;;;;;;;7.82;3.33;;;;;;;21.45;50.63;100450.81;10462311;28;20418;-74
2022/08/29 09:56:47;;;;;;;4.18;3.08;;;;;;;21.27;50.24;100441.38;10447072;28;20502;-74
2022/08/29 10:01:48;;;;;;;7.50;3.10;;;;;;;21.74;48.13;100446.06;10447898;28;20067;-74
2022/08/29 10:06:52;;;;;;;6.38;3.22;;;;;;;21.80;49.95;100439.41;10464276;28;20044;-74
2022/08/29 10:12:07;;;;;;;5.05;2.83;;;;;;;22.36;47.60;100435.31;10465528;28;20033;-74
2022/08/29 10:23:04;;;;;;;6.90;2.97;;;;;;;22.99;44.20;100443.09;10464582;28;20045;-76
2022/08/29 10:28:21;;;;;;;5.30;3.33;;;;;;;23.00;44.65;100429.56;10464948;28;20048;-75
2022/08/29 10:33:43;;;;;;;5.75;3.20;;;;;;;22.95;46.20;100434.44;10446178;28;20049;-74
2022/08/29 10:39:06;;;;;;;4.35;3.00;;;;;;;23.23;43.88;100440.34;10462862;28;20098;-74
2022/08/29 10:44:36;;;;;;;4.63;3.20;;;;;;;23.33;43.86;100435.94;10446277;28;20119;-74
2022/08/29 10:49:47;;;;;;;6.25;2.95;;;;;;;23.34;45.43;100443.91;10444948;28;20049;-73
2022/08/29 10:55:07;;;;;;;6.95;2.95;;;;;;;23.37;43.33;100435.63;10444349;28;20045;-73
2022/08/29 11:00:17;;;;;;;7.63;2.50;;;;;;;23.24;45.17;100429.50;10461873;28;20044;-75
2022/08/29 11:05:28;;;;;;;5.22;2.45;;;;;;;23.45;44.86;100437.66;10462251;28;20067;-74
2022/08/29 11:10:39;;;;;;;4.47;2.20;;;;;;;23.75;44.81;100434.41;10462236;28;20063;-74
2022/08/29 11:15:58;;;;;;;6.68;2.53;;;;;;;23.36;42.92;100433.03;10462421;28;20037;-73
2022/08/29 11:21:11;;;;;;;5.70;2.65;;;;;;;23.28;44.72;100430.94;10462814;28;20434;-75
2022/08/29 11:26:44;;;;;;;5.57;2.50;;;;;;;23.50;43.94;100415.84;10462871;28;20075;-74
2022/08/29 11:32:07;;;;;;;5.25;2.05;;;;;;;23.52;46.34;100420.13;10445381;28;20510;-75
2022/08/29 11:37:31;;;;;;;3.65;2.17;;;;;;;24.54;41.52;100424.34;10463603;28;20045;-74
2022/08/29 11:42:37;;;;;;;3.55;1.83;;;;;;;24.92;41.14;100418.41;10448026;28;20033;-74
2022/08/29 11:48:30;;;;;;;3.33;2.13;;;;;;;24.37;42.51;100416.84;10466292;28;20049;-76
2022/08/29 11:53:32;;;;;;;3.78;1.95;;;;;;;24.94;41.49;100414.75;10464565;28;20073;-74
2022/08/29 11:58:44;;;;;;;4.07;2.28;;;;;;;24.22;42.11;100410.03;10465054;28;20045;-75
2022/08/29 12:03:47;;;;;;;3.70;2.08;;;;;;;24.26;41.57;100412.34;10460998;28;20083;-74
2022/08/29 12:09:07;;;;;;;3.30;1.67;;;;;;;23.46;43.94;100417.06;10447160;28;20052;-74
2022/08/29 12:14:37;;;;;;;;;;;;;;;23.25;43.97;100407.06;10463880;28;20088;-74
2022/08/29 12:20:13;;;;;;;3.22;1.80;;;;;;;23.50;44.42;100411.31;10422256;28;19921;-75
2022/08/29 12:25:30;;;;;;;4.40;1.70;;;;;;;23.77;43.58;100402.91;10441644;28;20060;-74
2022/08/29 12:30:42;;;;;;;2.22;1.40;;;;;;;23.06;43.69;100402.28;10426071;28;20414;-74
2022/08/29 12:36:07;;;;;;;2.92;1.90;;;;;;;23.23;42.96;100405.47;10460730;28;20469;-75
2022/08/29 12:41:48;;;;;;;3.88;1.70;;;;;;;23.19;42.80;100401.31;10443166;28;20545;-73
2022/08/29 12:46:54;;;;;;;3.78;1.70;;;;;;;22.87;43.49;100397.47;10442995;28;20059;-74
2022/08/29 12:52:01;;;;;;;3.25;2.15;;;;;;;23.09;44.98;100398.50;10441366;28;20052;-74
2022/08/29 12:57:06;;;;;;;3.55;1.70;;;;;;;22.97;44.50;100391.41;10458358;28;20045;-74
2022/08/29 13:02:23;;;;;;;2.75;1.63;;;;;;;23.19;45.13;100383.41;10459457;28;20410;-74
2022/08/29 13:07:26;;;;;;;2.53;1.85;;;;;;;23.17;43.43;100380.84;10457450;28;20045;-74
2022/08/29 13:12:34;;;;;;;5.13;2.05;;;;;;;23.20;45.35;100382.44;10458533;28;20375;-74
2022/08/29 13:17:39;;;;;;;4.10;1.60;;;;;;;23.16;44.00;100375.63;10439975;28;20045;-74
2022/08/29 13:22:41;;;;;;;3.83;1.55;;;;;;;22.85;46.18;100375.31;10439371;28;20487;-74
2022/08/29 13:27:47;;;;;;;3.67;1.83;;;;;;;23.04;43.90;100368.53;10439505;28;20124;-75
2022/08/29 13:32:50;;;;;;;;;;;;;;;22.85;44.04;100367.25;10457154;28;20071;-74
2022/08/29 13:38:22;;;;;;;3.42;2.00;;;;;;;22.65;45.87;100360.75;10458049;28;19921;-75
2022/08/29 13:43:30;;;;;;;3.42;1.77;;;;;;;22.43;46.82;100360.69;10456561;28;20041;-74
2022/08/29 13:48:32;;;;;;;3.42;1.90;;;;;;;22.31;45.21;100359.81;10457182;28;20049;-74
2022/08/29 13:53:34;;;;;;;3.47;1.70;;;;;;;22.67;45.42;100358.81;10438339;28;20068;-75
2022/08/29 13:58:36;;;;;;;2.22;1.85;;;;;;;22.90;45.18;100353.53;10457380;28;20045;-74
2022/08/29 14:03:37;;;;;;;3.20;1.90;;;;;;;22.64;44.58;100353.69;10438440;28;20040;-74
2022/08/29 14:08:40;;;;;;;4.05;1.60;;;;;;;22.40;45.55;100363.59;10457031;28;20091;-74
2022/08/29 14:13:46;;;;;;;;;;;;;;;22.64;44.34;100350.16;10457233;28;20487;-73
2022/08/29 14:18:48;;;;;;;3.63;1.60;;;;;;;22.58;46.58;100347.97;10456493;28;20011;-73
2022/08/29 14:23:51;;;;;;;3.38;1.73;;;;;;;22.70;46.28;100346.13;10456187;28;20041;-74
2022/08/29 14:28:53;;;;;;;2.78;1.42;;;;;;;23.10;44.62;100343.91;10459789;28;20131;-74
2022/08/29 14:33:54;;;;;;;2.47;1.55;;;;;;;22.93;45.25;100339.88;10463638;28;20494;-73
2022/08/29 14:38:56;;;;;;;4.22;2.38;;;;;;;23.07;43.48;100341.50;10445687;28;20057;-74
2022/08/29 14:43:58;;;;;;;2.50;1.52;;;;;;;22.74;45.31;100329.69;10463384;28;20041;-74
2022/08/29 14:49:00;;;;;;;3.47;1.50;;;;;;;22.79;45.78;100329.34;10462892;28;20056;-74
2022/08/29 14:54:02;;;;;;;2.53;1.50;;;;;;;22.41;47.11;100336.69;10444582;28;20507;-74
2022/08/29 14:59:04;;;;;;;2.03;1.40;;;;;;;22.35;47.55;100330.94;10462391;28;20045;-74
2022/08/29 15:04:06;;;;;;;3.45;1.25;;;;;;;22.21;47.18;100323.13;10462504;28;20041;-75
2022/08/29 15:09:07;;;;;;;2.75;1.33;;;;;;;22.20;48.18;100326.75;10462453;28;20167;-75
2022/08/29 15:14:09;;;;;;;2.50;1.67;;;;;;;22.07;48.07;100305.38;10461569;28;20037;-74
2022/08/29 15:19:11;;;;;;;2.95;1.75;;;;;;;22.05;48.86;100305.50;10461474;28;20068;-75
2022/08/29 15:24:32;;;;;;;2.28;1.55;;;;;;;21.96;48.72;100305.31;10460971;28;20111;-75
2022/08/29 15:29:39;;;;;;;3.10;1.90;;;;;;;22.26;48.48;100296.84;10460697;28;20044;-74
2022/08/29 15:34:41;;;;;;;4.20;1.67;;;;;;;22.19;48.07;100300.97;10460393;28;20037;-75
2022/08/29 15:39:43;;;;;;;2.88;1.23;;;;;;;21.97;48.29;100305.22;10459366;28;20049;-75
2022/08/29 15:44:44;;;;;;;3.35;1.88;;;;;;;21.89;49.43;100302.25;10460453;28;20554;-74
2022/08/29 15:49:51;;;;;;;2.95;1.40;;;;;;;21.80;49.05;100305.63;10460668;28;20063;-74
2022/08/29 15:54:53;;;;;;;1.73;1.27;;;;;;;21.70;49.58;100308.13;10459951;28;20044;-74
2022/08/29 15:59:55;;;;;;;2.92;1.38;;;;;;;21.67;49.74;100286.94;10460202;28;20045;-74
2022/08/29 16:05:00;;;;;;;4.00;1.60;;;;;;;21.69;49.99;100294.84;10441888;28;20053;-69
2022/08/29 16:10:04;;;;;;;4.47;1.55;;;;;;;21.87;49.75;100293.50;10460796;28;20063;-69
2022/08/29 16:15:12;;;;;;;2.83;1.48;;;;;;;21.76;50.34;100286.25;10460436;28;20084;-69
2022/08/29 16:20:14;;;;;;;3.10;1.50;;;;;;;21.79;50.71;100275.34;10425730;28;20450;-70
2022/08/29 16:25:16;;;;;;;1.60;1.10;;;;;;;21.73;48.94;100280.28;10459086;28;20073;-69
2022/08/29 16:30:18;;;;;;;2.67;1.15;;;;;;;21.47;49.79;100275.06;10458957;28;20095;-68
2022/08/29 16:35:21;;;;;;;3.53;1.42;;;;;;;21.49;49.94;100270.44;10459752;28;20044;-68
2022/08/29 16:40:23;;;;;;;2.30;1.52;;;;;;;21.33;51.29;100270.69;10458645;28;20048;-69
2022/08/29 16:45:24;;;;;;;2.97;1.50;;;;;;;21.42;50.97;100266.50;10460014;28;20423;-69
2022/08/29 16:50:27;;;;;;;2.25;1.52;;;;;;;21.13;52.20;100269.44;10441323;28;20049;-69
2022/08/29 16:55:29;;;;;;;3.78;1.88;;;;;;;21.10;52.71;100276.81;10458243;28;20040;-68
2022/08/29 17:00:31;;;;;;;3.92;1.50;;;;;;;21.02;52.77;100288.06;10458262;28;20040;-68
2022/08/29 17:05:33;;;;;;;1.60;1.30;;;;;;;20.87;53.71;100287.31;10458795;28;20049;-69
2022/08/29 17:20:40;;;;;;;3.28;1.70;;;;;;;20.63;55.23;100291.72;10458864;28;20084;-69
2022/08/29 17:25:44;;;;;;;2.25;1.42;;;;;;;20.82;54.71;100293.97;10458935;28;20061;-70
2022/08/29 17:30:47;;;;;;;2.55;1.60;;;;;;;20.63;56.25;100294.41;10456718;28;20043;-69
2022/08/29 17:35:49;;;;;;;3.20;1.83;;;;;;;20.53;56.56;100296.84;10458854;28;20442;-69
2022/08/29 17:40:55;;;;;;;3.00;1.73;;;;;;;20.51;57.12;100305.94;10458023;28;20116;-69
2022/08/29 17:45:58;;;;;;;3.00;1.92;;;;;;;20.40;58.60;100302.13;10458853;28;20076;-69
2022/08/29 17:51:00;;;;;;;3.08;2.28;;;;;;;20.23;58.67;100297.09;10458742;28;20040;-69
2022/08/29 17:56:34;;;;;;;3.03;2.28;;;;;;;20.09;59.65;100302.50;10459154;28;20053;-69
2022/08/29 18:01:36;;;;;;;3.55;2.50;;;;;;;20.08;61.53;100303.47;10441916;28;20049;-69
2022/08/29 18:06:39;;;;;;;4.00;3.47;;;;;;;20.03;61.70;100297.56;10480790;22;20045;-68
2022/08/29 18:11:48;;;;;;;3.13;2.50;;;;;;;20.04;61.75;100315.28;10468698;28;20136;-69
2022/08/29 18:16:51;;;;;;;3.63;2.42;;;;;;;19.75;62.93;100312.75;10468941;28;20418;-69
2022/08/29 18:21:53;;;;;;;4.32;2.55;;;;;;;19.53;64.14;100313.25;10469866;28;20041;-69
2022/08/29 18:26:55;;;;;;;4.03;2.38;;;;;;;19.31;64.56;100323.56;10452453;28;20102;-69
2022/08/29 18:31:59;;;;;;;3.70;2.67;;;;;;;19.18;66.14;100327.97;10468705;28;20434;-69
2022/08/29 18:37:01;;;;;;;13.02;3.45;;;;;;;19.21;66.50;100335.75;10467600;28;20041;-69
2022/08/29 18:42:04;;;;;;;3.10;2.80;;;;;;;19.34;65.42;100342.03;10467578;28;20049;-70
2022/08/29 18:47:25;;;;;;;3.97;2.47;;;;;;;19.13;67.47;100333.59;10465615;28;20502;-69
2022/08/29 18:52:28;;;;;;;4.57;2.63;;;;;;;18.94;67.62;100341.00;10462448;28;20059;-69
2022/08/29 18:57:30;;;;;;;3.13;2.60;;;;;;;18.83;68.74;100339.84;10464903;28;20071;-68
2022/08/29 19:02:32;;;;;;;4.05;2.70;;;;;;;18.65;70.06;100355.09;10464747;28;20045;-69
2022/08/29 19:07:34;;;;;;;4.88;2.55;;;;;;;18.47;71.17;100358.88;10463991;28;20045;-69
2022/08/29 19:12:36;;;;;;;4.70;3.45;;;;;;;18.50;71.24;100356.00;10464788;28;20406;-69
2022/08/29 19:17:50;;;;;;;4.97;3.47;;;;;;;18.39;70.99;100367.31;10431834;28;20056;-69
2022/08/29 19:22:52;;;;;;;6.70;3.22;;;;;;;18.32;70.88;100373.06;10463357;28;20044;-69
2022/08/29 19:27:54;;;;;;;3.95;3.38;;;;;;;18.10;72.78;100358.34;10463476;28;20124;-69
2022/08/29 19:32:56;;;;;;;3.42;3.10;;;;;;;18.04;72.82;100365.84;10463170;28;20383;-69
2022/08/29 19:37:58;;;;;;;5.03;3.17;;;;;;;17.98;73.85;100366.19;10463471;28;20040;-69
2022/08/29 19:43:01;;;;;;;5.80;4.07;;;;;;;17.72;75.42;100368.50;10462161;28;20049;-69
2022/08/29 19:48:13;;;;;;;6.38;4.10;;;;;;;17.68;76.26;100361.63;10462058;28;20395;-69
2022/08/29 19:53:17;;;;;;;8.90;3.67;;;;;;;17.58;76.94;100366.59;10461933;28;20462;-70
2022/08/29 19:58:27;;;;;;;4.40;3.70;;;;;;;17.37;77.62;100373.94;10460284;28;20044;-69
2022/08/29 20:03:36;;;;;;;4.13;3.40;;;;;;;17.60;76.66;100372.69;10444068;28;20041;-68
2022/08/29 20:08:41;;;;;;;5.80;4.23;;;;;;;17.37;77.60;100375.75;10441878;28;20585;-69
2022/08/29 20:13:43;;;;;;;4.63;4.10;;;;;;;17.02;79.13;100381.16;10442415;28;20051;-69
2022/08/29 20:18:51;;;;;;;5.70;3.75;;;;;;;16.96;79.26;100377.97;10460852;28;20056;-69
2022/08/29 20:23:53;;;;;;;4.88;4.45;;;;;;;16.92;80.13;100381.72;10461617;28;20441;-69
2022/08/29 20:29:01;;;;;;;5.40;4.00;;;;;;;16.82;80.42;100383.97;10426897;28;20049;-69
2022/08/29 20:34:03;;;;;;;4.70;3.78;;;;;;;16.74;80.64;100387.06;10459861;28;20063;-69
2022/08/29 20:39:07;;;;;;;6.97;4.20;;;;;;;16.76;80.94;100381.66;10460019;28;20517;-69
2022/08/29 20:44:16;;;;;;;4.63;4.18;;;;;;;16.61;81.98;100391.25;10462281;28;20402;-69
2022/08/29 20:49:21;;;;;;;5.50;4.15;;;;;;;16.46;82.40;100389.34;10459808;28;20110;-68
2022/08/29 20:54:23;;;;;;;5.32;3.50;;;;;;;16.36;82.88;100392.47;10458252;28;20116;-69
2022/08/29 20:59:26;;;;;;;5.78;3.95;;;;;;;16.29;84.43;100392.84;10458479;28;20041;-68
2022/08/29 21:09:50;;;;;;;5.53;3.30;;;;;;;16.28;82.65;100394.63;10459961;28;20414;-71
2022/08/29 21:14:52;;;;;;;4.45;3.88;;;;;;;16.31;82.76;100398.94;10457490;28;20045;-71
2022/08/29 21:19:54;;;;;;;5.60;3.83;;;;;;;16.35;83.53;100405.81;10440383;28;20049;-70
2022/08/29 21:24:56;;;;;;;4.10;3.70;;;;;;;16.31;83.79;100410.41;10457470;28;20041;-71
2022/08/29 21:29:57;;;;;;;4.80;4.38;;;;;;;16.19;81.98;100418.09;10459757;28;20056;-71
2022/08/29 21:35:00;;;;;;;4.47;3.95;;;;;;;16.13;83.35;100420.13;10439456;28;20045;-73
2022/08/29 21:40:05;;;;;;;4.75;4.28;;;;;;;16.09;84.65;100430.97;10466513;28;20047;-74
2022/08/29 21:45:09;;;;;;;5.43;4.77;;;;;;;16.07;86.70;100432.81;10448373;28;20072;-74
2022/08/29 21:50:10;;;;;;;5.93;4.53;;;;;;;16.26;86.46;100417.75;10449769;28;20043;-74
2022/08/29 21:55:12;;;;;;;6.43;5.03;;;;;;;16.02;86.93;100429.53;10465391;28;20486;-74
2022/08/29 22:00:14;;;;;;;5.18;4.70;;;;;;;15.81;87.65;100423.47;10466275;28;20045;-72
2022/08/29 22:05:17;;;;;;;5.28;4.78;;;;;;;15.61;87.65;100417.25;10449388;28;20075;-74
2022/08/29 22:10:23;;;;;;;4.93;4.38;;;;;;;15.49;87.96;100422.28;10467660;28;20041;-73
2022/08/29 22:20:46;;;;;;;8.85;4.35;;;;;;;15.44;87.45;100433.06;10467270;28;20112;-73
2022/08/29 22:25:53;;;;;;;7.82;4.18;;;;;;;15.53;87.84;100413.25;10466186;28;20131;-73
2022/08/29 22:30:55;;;;;;;4.18;3.80;;;;;;;15.56;88.25;100421.06;10448082;28;20103;-74
2022/08/29 22:35:58;;;;;;;5.45;4.65;;;;;;;15.42;88.42;100427.00;10468151;28;20037;-73
2022/08/29 22:40:59;;;;;;;4.55;4.13;;;;;;;15.51;87.93;100421.28;10466043;28;20048;-73
2022/08/29 22:46:01;;;;;;;4.60;4.13;;;;;;;15.31;88.69;100423.97;10466151;28;20127;-72
2022/08/29 22:51:03;;;;;;;5.25;4.50;;;;;;;15.14;89.35;100427.38;10448193;28;20521;-73
2022/08/29 22:56:06;;;;;;;5.45;4.90;;;;;;;14.97;88.66;100425.47;10467368;28;20495;-73
2022/08/29 23:01:12;;;;;;;6.50;3.65;;;;;;;15.14;89.02;100430.91;10466336;28;20053;-74
2022/08/29 23:06:14;;;;;;;5.07;4.18;;;;;;;15.22;89.12;100427.03;10448770;28;20041;-75
2022/08/29 23:11:16;;;;;;;4.80;4.00;;;;;;;14.96;90.74;100425.53;10465786;28;20041;-73
2022/08/29 23:16:18;;;;;;;4.43;4.03;;;;;;;14.83;91.37;100431.38;10447431;28;20045;-74
2022/08/29 23:21:21;;;;;;;4.70;4.00;;;;;;;14.75;91.49;100428.19;10465874;28;20041;-73
2022/08/29 23:26:24;;;;;;;5.68;3.42;;;;;;;14.78;90.52;100428.03;10464795;28;20037;-73
2022/08/29 23:31:26;;;;;;;5.63;3.47;;;;;;;14.76;89.52;100424.63;10448761;28;20072;-74
2022/08/29 23:36:28;;;;;;;4.88;3.75;;;;;;;14.60;91.82;100416.44;10446786;28;20055;-73
2022/08/29 23:41:30;;;;;;;4.35;3.95;;;;;;;14.61;91.01;100420.84;10449933;28;20506;-74
2022/08/29 23:46:32;;;;;;;7.10;3.88;;;;;;;14.53;91.86;100415.00;10445356;28;20055;-74
2022/08/29 23:51:34;;;;;;;5.63;4.80;;;;;;;14.72;91.33;100416.88;10445990;28;20045;-74
2022/08/29 23:56:36;;;;;;;4.82;4.38;;;;;;;14.63;91.63;100416.34;10463396;28;20458;-74
